Time;durP1;ratioP1;P1;durP2;ratioP2;P2;SDS_P1;SDS_P2;PMS_P1;PMS_P2;Temp;Humidity;BMP_temperature;BMP_pressure;BME280_temperature;BME280_humidity;BME280_pressure;Samples;Min_cycle;Max_cycle;Signal;HPM_P1;HPM_P2
2022/06/10 00:01:26;;;;;;;9.40;2.50;;;;;;;15.69;69.21;101161.06;4211049;28;20032;-68
2022/06/10 00:03:30;;;;;;;6.50;2.85;;;;;;;15.66;69.08;101160.19;4200421;28;20082;-68
2022/06/10 00:05:36;;;;;;;4.80;3.22;;;;;;;15.56;69.12;101167.13;4213944;28;20133;-68
2022/06/10 00:07:39;;;;;;;7.47;2.90;;;;;;;15.50;69.13;101167.13;4208872;28;20044;-69
2022/06/10 00:09:42;;;;;;;7.80;2.50;;;;;;;15.49;69.32;101167.97;4208426;28;20028;-68
2022/06/10 00:11:46;;;;;;;5.93;2.42;;;;;;;15.47;69.66;101170.59;4206427;28;20036;-69
2022/06/10 00:13:50;;;;;;;4.50;2.30;;;;;;;15.48;70.30;101172.34;4207394;28;20067;-68
2022/06/10 00:15:54;;;;;;;11.05;4.18;;;;;;;15.49;70.26;101167.97;4203584;28;20131;-68
2022/06/10 00:17:57;;;;;;;6.00;2.85;;;;;;;15.48;70.03;101171.47;4207873;28;20520;-69
2022/06/10 00:20:03;;;;;;;6.40;2.78;;;;;;;15.49;69.93;101171.50;4210304;28;20040;-69
2022/06/10 00:22:06;;;;;;;7.22;2.88;;;;;;;15.44;69.91;101164.47;4213866;28;20035;-68
2022/06/10 00:24:09;;;;;;;7.60;3.35;;;;;;;15.41;70.52;101164.44;4206987;28;20055;-68
2022/06/10 00:26:14;;;;;;;6.57;3.08;;;;;;;15.43;70.20;101173.19;4205130;28;20123;-68
2022/06/10 00:28:17;;;;;;;7.45;3.65;;;;;;;15.38;70.59;101170.53;4199480;28;20123;-68
2022/06/10 00:30:22;;;;;;;5.65;2.60;;;;;;;15.36;71.16;101170.53;4208200;28;20032;-68
2022/06/10 00:32:25;;;;;;;7.75;3.35;;;;;;;15.24;70.89;101173.06;4214042;28;20123;-68
2022/06/10 00:34:28;;;;;;;8.35;3.10;;;;;;;15.23;70.80;101176.56;4204014;28;20501;-68
2022/06/10 00:36:32;;;;;;;5.85;2.80;;;;;;;15.24;70.80;101180.91;4209836;28;20037;-69
2022/06/10 00:38:35;;;;;;;5.32;2.78;;;;;;;15.22;71.75;101180.06;4207913;28;20137;-68
2022/06/10 00:40:41;;;;;;;9.95;3.50;;;;;;;15.25;71.26;101180.06;4215220;28;20036;-68
2022/06/10 00:42:45;;;;;;;7.28;3.85;;;;;;;15.23;70.97;101178.28;4209988;28;20046;-69
2022/06/10 00:44:52;;;;;;;7.85;3.72;;;;;;;15.26;71.14;101180.94;4208370;28;20131;-69
2022/06/10 00:46:55;;;;;;;8.02;3.85;;;;;;;15.27;71.28;101188.78;4200044;28;20063;-69
2022/06/10 00:49:03;;;;;;;8.13;4.00;;;;;;;15.27;70.85;101188.78;4208570;28;20517;-69
2022/06/10 00:51:17;;;;;;;9.10;4.25;;;;;;;15.12;71.71;101181.72;4200642;28;20043;-69
2022/06/10 00:53:27;;;;;;;5.50;3.03;;;;;;;15.13;71.57;101190.47;4206714;28;20134;-69
2022/06/10 00:55:31;;;;;;;8.68;4.28;;;;;;;15.14;70.89;101185.25;4214150;28;20425;-68
2022/06/10 00:57:38;;;;;;;6.20;3.92;;;;;;;15.16;71.53;101186.13;4198852;28;20397;-68
2022/06/10 00:59:44;;;;;;;9.77;3.60;;;;;;;15.14;71.60;101181.72;4199480;28;20056;-70
2022/06/10 01:01:48;;;;;;;8.07;3.65;;;;;;;15.09;71.43;101180.84;4205891;28;20454;-68
2022/06/10 01:03:51;;;;;;;4.88;3.08;;;;;;;15.06;71.66;101184.31;4208489;28;20040;-69
2022/06/10 01:05:54;;;;;;;7.60;4.05;;;;;;;15.08;71.63;101182.56;4205999;28;20040;-69
2022/06/10 01:08:02;;;;;;;10.77;4.55;;;;;;;15.09;71.56;101179.09;4205508;28;20043;-69
2022/06/10 01:10:10;;;;;;;8.38;3.50;;;;;;;15.04;71.94;101190.38;4202755;28;20033;-69
2022/06/10 01:12:36;;;;;;;7.60;3.75;;;;;;;15.00;71.99;101190.38;4203360;28;20063;-69
2022/06/10 01:14:52;;;;;;;6.30;3.25;;;;;;;15.03;71.29;101193.88;4204235;28;20035;-69
2022/06/10 01:17:07;;;;;;;5.60;2.97;;;;;;;15.02;71.96;101179.91;4215334;28;20461;-69
2022/06/10 01:19:31;;;;;;;7.50;3.15;;;;;;;15.04;71.71;101186.03;4214626;28;20119;-69
2022/06/10 01:22:03;;;;;;;5.55;2.97;;;;;;;15.01;71.92;101186.88;4206972;28;20050;-69
2022/06/10 01:24:34;;;;;;;7.57;3.75;;;;;;;14.98;71.67;101191.22;4205154;28;20059;-69
2022/06/10 01:29:52;;;;;;;5.72;3.70;;;;;;;14.93;71.95;101188.56;4213550;28;20449;-70
2022/06/10 01:32:01;;;;;;;6.78;3.30;;;;;;;14.92;71.90;101186.84;4199197;28;20050;-69
2022/06/10 01:34:20;;;;;;;7.93;3.65;;;;;;;14.90;72.36;101183.31;4212927;28;20126;-68
2022/06/10 01:36:32;;;;;;;7.30;3.97;;;;;;;14.92;71.83;101178.97;4208494;28;20044;-69
2022/06/10 01:38:43;;;;;;;11.93;3.95;;;;;;;14.97;71.77;101185.09;4206782;28;20063;-69
2022/06/10 01:40:53;;;;;;;9.43;4.47;;;;;;;14.90;71.64;101183.31;4205770;28;20048;-69
2022/06/10 01:43:02;;;;;;;10.15;3.83;;;;;;;14.81;71.74;101185.84;4203599;28;20601;-69
2022/06/10 01:45:12;;;;;;;7.63;3.72;;;;;;;14.78;72.20;101191.06;4201090;28;20127;-69
2022/06/10 01:47:21;;;;;;;6.18;3.72;;;;;;;14.78;71.83;101194.56;4212461;28;20119;-69
2022/06/10 01:49:29;;;;;;;6.70;3.10;;;;;;;14.78;71.82;101193.69;4213597;28;20044;-69
2022/06/10 01:51:41;;;;;;;10.32;3.60;;;;;;;14.80;71.25;101191.94;4198460;28;20087;-69
2022/06/10 01:53:57;;;;;;;6.80;2.97;;;;;;;14.81;71.77;101198.94;4212796;28;20135;-70
2022/06/10 01:56:06;;;;;;;5.97;2.80;;;;;;;14.76;71.46;101201.53;4199984;28;20041;-70
2022/06/10 01:58:12;;;;;;;6.95;3.15;;;;;;;14.74;72.18;101195.38;4210386;28;20550;-70
2022/06/10 02:00:19;;;;;;;7.25;3.65;;;;;;;14.75;71.92;101204.13;4186215;28;20079;-69
2022/06/10 02:02:28;;;;;;;5.85;3.28;;;;;;;14.75;71.69;101197.16;4201667;28;20036;-69
2022/06/10 02:04:35;;;;;;;5.65;3.15;;;;;;;14.72;71.44;101201.47;4205355;28;20036;-70
2022/06/10 02:06:45;;;;;;;5.32;3.13;;;;;;;14.72;72.05;101198.84;4204052;28;20039;-69
2022/06/10 02:08:53;;;;;;;6.28;3.13;;;;;;;14.66;71.86;101195.31;4204725;28;20067;-69
2022/06/10 02:11:00;;;;;;;7.93;2.75;;;;;;;14.66;72.04;101194.47;4208710;28;20059;-70
2022/06/10 02:13:08;;;;;;;4.35;2.80;;;;;;;14.69;71.52;101204.06;4196918;28;20086;-69
2022/06/10 02:15:16;;;;;;;5.72;2.95;;;;;;;14.66;71.32;101203.19;4193356;28;20122;-69
2022/06/10 02:17:21;;;;;;;6.75;3.50;;;;;;;14.63;70.99;101197.91;4209354;28;20044;-70
2022/06/10 02:19:30;;;;;;;7.43;3.50;;;;;;;14.58;71.58;101207.41;4198466;28;20059;-70
2022/06/10 02:21:39;;;;;;;7.70;3.80;;;;;;;14.51;71.46;101207.34;4205116;28;20048;-70
2022/06/10 02:23:46;;;;;;;5.68;3.20;;;;;;;14.49;71.98;101196.88;4206953;28;20055;-69
2022/06/10 02:25:52;;;;;;;6.25;3.65;;;;;;;14.48;71.82;101205.56;4206854;28;20033;-70
2022/06/10 02:27:59;;;;;;;5.75;3.25;;;;;;;14.47;72.26;101204.69;4209540;28;20242;-70
2022/06/10 02:30:06;;;;;;;7.72;3.95;;;;;;;14.48;71.69;101214.31;4206808;28;20489;-70
2022/06/10 02:32:10;;;;;;;6.55;2.95;;;;;;;14.47;72.20;101225.63;4203699;28;20508;-70
2022/06/10 02:34:14;;;;;;;3.88;2.60;;;;;;;14.46;72.28;101228.22;4212810;28;20042;-70
2022/06/10 02:36:26;;;;;;;7.00;3.10;;;;;;;14.51;72.65;101228.28;4189542;28;20045;-70
2022/06/10 02:38:42;;;;;;;6.78;3.13;;;;;;;14.51;71.95;101223.03;4204885;28;20437;-70
2022/06/10 02:40:49;;;;;;;7.22;3.33;;;;;;;14.49;71.43;101229.13;4198890;28;20036;-70
2022/06/10 02:42:59;;;;;;;8.80;2.80;;;;;;;14.49;71.83;101230.88;4197132;28;20383;-70
2022/06/10 02:45:11;;;;;;;5.05;3.03;;;;;;;14.48;71.89;101230.00;4208212;28;20516;-70
2022/06/10 02:47:20;;;;;;;5.68;2.85;;;;;;;14.47;71.88;101235.19;4195007;28;20068;-70
2022/06/10 02:49:23;;;;;;;8.02;3.80;;;;;;;14.46;72.00;101228.22;4206017;28;20040;-69
2022/06/10 02:51:28;;;;;;;8.20;3.63;;;;;;;14.44;71.40;101235.16;4203525;28;20044;-69
2022/06/10 02:53:32;;;;;;;7.30;3.30;;;;;;;14.38;72.32;101241.22;4209594;28;20131;-69
2022/06/10 02:55:37;;;;;;;3.85;2.83;;;;;;;14.38;72.20;101237.72;4203084;28;20044;-69
2022/06/10 03:02:27;;;;;;;6.25;2.67;;;;;;;14.26;72.44;101246.31;4204917;28;20472;-70
2022/06/10 03:04:42;;;;;;;7.45;2.45;;;;;;;14.25;72.19;101247.16;4209180;28;20032;-70
2022/06/10 03:07:07;;;;;;;8.68;2.72;;;;;;;14.27;72.32;101253.31;4203251;28;20040;-70
2022/06/10 03:09:15;;;;;;;4.32;2.33;;;;;;;14.24;72.59;101248.91;4205272;28;20564;-70
2022/06/10 03:11:27;;;;;;;6.57;2.97;;;;;;;14.23;73.28;101255.00;4197281;28;20040;-70
2022/06/10 03:13:46;;;;;;;6.05;3.00;;;;;;;14.20;72.75;101256.72;4203251;28;20067;-70
2022/06/10 03:16:01;;;;;;;7.07;2.78;;;;;;;14.21;72.80;101256.72;4206048;28;20047;-70
2022/06/10 03:18:09;;;;;;;;;;;;;;;14.06;73.02;101260.03;4199666;28;20434;-70
2022/06/10 03:20:19;;;;;;;5.60;3.00;;;;;;;14.17;73.27;101256.69;4205536;28;19978;-69
2022/06/10 03:22:38;;;;;;;8.45;3.22;;;;;;;14.18;72.31;101264.53;4209843;28;20050;-70
2022/06/10 03:24:53;;;;;;;8.07;2.95;;;;;;;14.17;72.41;101267.13;4210402;28;20124;-70
2022/06/10 03:26:59;;;;;;;;;;;;;;;13.98;73.41;101272.13;4204384;28;20476;-70
2022/06/10 03:29:08;;;;;;;8.95;2.60;;;;;;;14.07;73.22;101276.59;4207750;28;20362;-70
2022/06/10 03:31:17;;;;;;;6.15;2.63;;;;;;;14.12;73.60;101281.03;4197299;28;20079;-70
2022/06/10 03:33:26;;;;;;;4.63;2.60;;;;;;;14.15;73.06;101282.81;4204890;28;20566;-70
2022/06/10 03:35:34;;;;;;;5.63;2.67;;;;;;;14.15;72.67;101280.19;4194724;28;20070;-70
2022/06/10 03:37:40;;;;;;;4.88;2.95;;;;;;;14.19;72.44;101281.97;4208420;28;20040;-70
2022/06/10 03:39:43;;;;;;;8.95;2.90;;;;;;;14.16;72.69;101287.16;4201232;28;20029;-69
2022/06/10 03:41:56;;;;;;;5.90;2.40;;;;;;;14.18;72.22;101280.22;4196931;28;20037;-70
2022/06/10 03:44:02;;;;;;;5.30;3.20;;;;;;;14.17;72.56;101280.22;4205904;28;20032;-70
2022/06/10 03:46:13;;;;;;;5.15;2.60;;;;;;;14.14;72.48;101278.44;4206137;28;20127;-70
2022/06/10 03:48:21;;;;;;;5.72;2.88;;;;;;;14.16;73.26;101292.38;4204234;28;20124;-70
2022/06/10 03:50:28;;;;;;;4.43;2.47;;;;;;;14.16;72.46;101292.38;4210621;28;20048;-70
2022/06/10 03:52:34;;;;;;;6.43;2.38;;;;;;;14.16;72.79;101291.53;4195589;28;20045;-70
2022/06/10 03:54:38;;;;;;;5.22;2.63;;;;;;;14.16;72.83;101289.78;4207565;28;20050;-69
2022/06/10 03:56:41;;;;;;;;;;;;;;;14.03;73.11;101286.16;4210916;28;20139;-70
2022/06/10 03:58:44;;;;;;;4.25;2.58;;;;;;;14.03;73.47;101293.09;4200869;28;19924;-69
2022/06/10 04:00:47;;;;;;;7.18;2.97;;;;;;;14.07;73.56;101292.28;4210466;28;20058;-70
2022/06/10 04:02:51;;;;;;;6.73;2.93;;;;;;;14.11;73.64;101296.69;4208460;28;20126;-70
2022/06/10 04:04:54;;;;;;;6.20;2.58;;;;;;;14.16;73.26;101305.47;4201443;28;20068;-70
2022/06/10 04:06:57;;;;;;;5.35;2.40;;;;;;;14.17;72.94;101302.00;4200985;28;20046;-70
2022/06/10 04:09:01;;;;;;;8.18;3.00;;;;;;;14.18;72.70;101309.00;4207783;28;20127;-70
2022/06/10 04:11:09;;;;;;;4.47;2.33;;;;;;;14.24;73.51;101306.44;4203994;28;20052;-70
2022/06/10 04:13:12;;;;;;;7.57;2.60;;;;;;;14.28;72.46;101312.59;4202178;28;20032;-70
2022/06/10 04:15:15;;;;;;;6.53;2.47;;;;;;;14.29;72.85;101312.63;4205196;28;20062;-70
2022/06/10 04:17:18;;;;;;;4.28;2.25;;;;;;;14.28;72.82;101323.03;4203212;28;20418;-70
2022/06/10 04:19:22;;;;;;;4.18;2.35;;;;;;;14.26;73.01;101320.41;4207559;28;20554;-69
2022/06/10 04:21:25;;;;;;;8.38;2.78;;;;;;;14.30;73.02;101316.97;4205589;28;20079;-69
2022/06/10 04:23:27;;;;;;;5.15;2.33;;;;;;;14.32;73.44;101330.97;4204766;28;20041;-69
2022/06/10 04:25:32;;;;;;;6.20;2.42;;;;;;;14.32;73.17;101332.69;4204746;28;20516;-69
2022/06/10 04:27:36;;;;;;;;;;;;;;;14.18;73.96;101329.91;4206536;28;20068;-70
2022/06/10 04:29:39;;;;;;;5.38;2.42;;;;;;;14.29;73.37;101332.66;4196649;28;19920;-70
2022/06/10 04:31:42;;;;;;;8.02;2.67;;;;;;;14.34;73.35;101338.84;4204145;28;20529;-69
2022/06/10 04:33:45;;;;;;;5.90;3.05;;;;;;;14.44;73.09;101338.09;4205082;28;20068;-70
2022/06/10 04:35:50;;;;;;;4.18;2.80;;;;;;;14.50;73.28;101339.91;4208560;28;20075;-69
2022/06/10 04:37:54;;;;;;;4.40;2.10;;;;;;;14.51;73.43;101341.66;4206665;28;20046;-70
2022/06/10 04:39:57;;;;;;;4.88;2.55;;;;;;;14.50;73.07;101345.16;4211436;28;20113;-70
2022/06/10 04:41:59;;;;;;;4.30;2.78;;;;;;;14.52;72.93;101342.56;4186062;28;20039;-70
2022/06/10 04:44:04;;;;;;;8.20;3.40;;;;;;;14.54;73.55;101339.06;4212455;28;20040;-69
2022/06/10 04:46:09;;;;;;;5.22;2.60;;;;;;;14.59;73.00;101340.03;4207829;28;20132;-68
2022/06/10 04:48:12;;;;;;;7.13;2.90;;;;;;;14.62;72.67;101337.47;4209530;28;20040;-69
2022/06/10 04:50:18;;;;;;;8.23;2.63;;;;;;;14.65;73.48;101337.50;4208794;28;20043;-69
2022/06/10 04:52:20;;;;;;;5.78;2.90;;;;;;;14.63;73.11;101335.72;4203784;28;20036;-69
2022/06/10 04:54:29;;;;;;;6.32;2.72;;;;;;;14.66;73.43;101333.16;4198199;28;20060;-69
2022/06/10 04:56:32;;;;;;;4.68;2.63;;;;;;;14.75;73.45;101329.78;4207364;28;20036;-69
2022/06/10 04:58:35;;;;;;;7.88;4.00;;;;;;;14.77;72.95;101331.53;4198382;28;20033;-69
2022/06/10 05:00:42;;;;;;;5.32;2.85;;;;;;;14.83;72.92;101339.47;4206297;28;20139;-69
2022/06/10 05:02:45;;;;;;;7.35;3.30;;;;;;;14.88;72.87;101338.59;4191798;28;20044;-69
2022/06/10 05:04:48;;;;;;;5.43;3.28;;;;;;;14.90;72.66;101340.38;4193257;28;20049;-69
2022/06/10 05:06:51;;;;;;;6.22;2.20;;;;;;;14.86;72.84;101343.81;4214538;28;20130;-69
2022/06/10 05:08:54;;;;;;;4.35;2.40;;;;;;;14.88;73.71;101344.75;4214570;28;20070;-69
2022/06/10 05:10:57;;;;;;;7.97;3.78;;;;;;;15.03;72.87;101345.78;4199053;28;20401;-69
2022/06/10 05:13:00;;;;;;;7.65;4.07;;;;;;;15.05;72.38;101344.03;4198075;28;20049;-69
2022/06/10 05:15:04;;;;;;;5.13;3.05;;;;;;;15.03;71.83;101341.41;4204513;28;20040;-69
2022/06/10 05:17:08;;;;;;;9.18;4.13;;;;;;;15.06;72.08;101340.56;4205100;28;20037;-68
2022/06/10 05:19:11;;;;;;;6.53;3.72;;;;;;;15.06;71.47;101356.28;4207353;28;20040;-69
2022/06/10 05:21:14;;;;;;;4.57;2.75;;;;;;;15.11;71.92;101354.56;4212148;28;20051;-69
2022/06/10 05:23:20;;;;;;;6.18;3.35;;;;;;;15.13;71.73;101347.63;4214693;28;20460;-70
2022/06/10 05:25:23;;;;;;;7.40;3.90;;;;;;;15.29;71.29;101348.63;4213283;28;20484;-70
2022/06/10 05:27:26;;;;;;;7.90;3.63;;;;;;;15.29;71.34;101348.63;4206939;28;20071;-69
2022/06/10 05:29:29;;;;;;;7.93;3.78;;;;;;;15.35;71.41;101346.94;4208446;28;20064;-69
2022/06/10 05:31:32;;;;;;;9.75;2.95;;;;;;;15.44;71.33;101353.13;4189258;28;20037;-69
2022/06/10 05:35:56;;;;;;;11.43;4.35;;;;;;;15.49;70.52;101354.94;4193046;28;20045;-69
2022/06/10 05:38:00;;;;;;;8.40;3.20;;;;;;;15.54;71.06;101362.81;4211085;28;20102;-68
2022/06/10 05:40:04;;;;;;;4.65;2.70;;;;;;;15.57;70.45;101367.22;4203671;28;20119;-68
2022/06/10 05:42:09;;;;;;;6.43;3.38;;;;;;;15.66;69.93;101359.41;4206266;28;20032;-68
2022/06/10 05:44:12;;;;;;;8.57;3.13;;;;;;;15.73;70.06;101360.34;4198746;28;20127;-68
2022/06/10 05:46:15;;;;;;;7.18;3.97;;;;;;;15.73;69.85;101361.22;4207133;28;20032;-68
2022/06/10 05:48:18;;;;;;;5.22;3.00;;;;;;;15.82;69.52;101361.31;4210599;28;20401;-68
2022/06/10 05:50:25;;;;;;;4.97;3.20;;;;;;;15.94;68.61;101365.75;4205667;28;20106;-68
2022/06/10 05:52:31;;;;;;;7.03;3.33;;;;;;;15.88;68.75;101360.47;4210986;28;20413;-69
2022/06/10 05:54:35;;;;;;;11.07;4.30;;;;;;;15.97;68.29;101364.91;4208551;28;20071;-69
2022/06/10 05:56:39;;;;;;;;;;;;;;;15.88;68.62;101365.72;4207723;28;20450;-68
2022/06/10 05:58:42;;;;;;;5.80;2.63;;;;;;;15.96;68.78;101369.28;4211987;28;20015;-68
2022/06/10 06:00:45;;;;;;;4.20;2.55;;;;;;;15.93;69.79;101366.66;4204225;28;20482;-69
2022/06/10 06:02:49;;;;;;;5.10;2.40;;;;;;;15.94;69.73;101365.75;4205797;28;20128;-69
2022/06/10 06:04:52;;;;;;;5.25;2.55;;;;;;;15.95;69.32;101370.16;4204350;28;20052;-69
2022/06/10 06:06:57;;;;;;;8.67;3.60;;;;;;;15.93;69.04;101373.63;4209145;28;20036;-69
2022/06/10 06:09:00;;;;;;;5.70;2.75;;;;;;;16.02;68.65;101378.94;4207158;28;20123;-69
2022/06/10 06:11:03;;;;;;;8.75;3.20;;;;;;;16.10;68.83;101376.34;4207922;28;20536;-69
2022/06/10 06:13:06;;;;;;;7.00;2.55;;;;;;;16.18;68.43;101377.28;4207379;28;20032;-69
2022/06/10 06:15:12;;;;;;;6.18;2.38;;;;;;;16.28;68.88;101370.31;4211749;28;20477;-69
2022/06/10 06:17:17;;;;;;;8.70;2.80;;;;;;;16.35;68.69;101369.50;4205917;28;20036;-68
2022/06/10 06:19:21;;;;;;;6.43;2.47;;;;;;;16.44;68.52;101373.91;4208789;28;20043;-69
2022/06/10 06:21:24;;;;;;;12.63;3.33;;;;;;;16.56;68.07;101376.59;4209197;28;20115;-69
2022/06/10 06:23:28;;;;;;;8.07;3.60;;;;;;;16.73;66.16;101374.03;4208675;28;20143;-69
2022/06/10 06:25:32;;;;;;;6.10;3.03;;;;;;;16.66;66.60;101381.03;4189243;28;20049;-69
2022/06/10 06:27:35;;;;;;;5.43;2.53;;;;;;;16.60;67.29;101378.34;4202935;28;20444;-68
2022/06/10 06:29:38;;;;;;;6.10;3.22;;;;;;;16.55;67.00;101393.22;4210498;28;20373;-69
2022/06/10 06:31:41;;;;;;;8.48;2.80;;;;;;;16.58;67.23;101386.22;4211419;28;20044;-69
2022/06/10 06:33:44;;;;;;;5.53;2.85;;;;;;;16.61;67.64;101379.25;4202283;28;20032;-68
2022/06/10 06:35:52;;;;;;;7.78;3.58;;;;;;;16.66;67.57;101382.75;4212211;28;20039;-68
2022/06/10 06:37:54;;;;;;;8.10;3.45;;;;;;;16.86;66.05;101381.06;4205607;28;20119;-67
2022/06/10 06:39:59;;;;;;;8.25;3.40;;;;;;;16.82;66.69;101383.69;4207355;28;20045;-68
2022/06/10 06:42:03;;;;;;;6.32;3.22;;;;;;;16.80;66.49;101385.44;4210407;28;20110;-67
2022/06/10 06:44:10;;;;;;;7.38;3.13;;;;;;;16.89;66.71;101385.50;4192686;28;20875;-67
2022/06/10 06:46:14;;;;;;;8.50;4.65;;;;;;;16.93;66.36;101384.63;4206178;28;20039;-67
2022/06/10 06:48:17;;;;;;;;;;;;;;;17.00;65.69;101385.53;4204181;28;20086;-67
2022/06/10 06:50:24;;;;;;;7.13;4.00;;;;;;;17.04;65.71;101380.28;4208517;28;19931;-67
2022/06/10 06:52:27;;;;;;;7.68;4.10;;;;;;;17.19;65.19;101383.81;4205130;28;20405;-68
2022/06/10 06:54:30;;;;;;;7.55;3.70;;;;;;;17.27;64.79;101382.06;4213163;28;20063;-71
2022/06/10 06:56:35;;;;;;;8.32;3.47;;;;;;;17.29;65.13;101382.97;4210025;28;20134;-71
2022/06/10 06:58:38;;;;;;;7.55;3.35;;;;;;;17.39;64.95;101382.09;4190199;28;20044;-67
2022/06/10 07:00:40;;;;;;;7.18;3.65;;;;;;;17.41;64.93;101380.34;4208501;28;20039;-68
2022/06/10 07:02:44;;;;;;;7.30;3.75;;;;;;;17.39;64.64;101373.31;4204189;28;20113;-66
2022/06/10 07:04:47;;;;;;;7.18;3.58;;;;;;;17.35;65.12;101375.06;4206646;28;20127;-66
2022/06/10 07:06:50;;;;;;;9.13;4.70;;;;;;;17.25;64.25;101376.81;4211888;28;20047;-64
2022/06/10 07:08:53;;;;;;;8.52;4.88;;;;;;;17.19;64.54;101383.81;4202616;28;20048;-66
2022/06/10 07:10:55;;;;;;;7.47;3.55;;;;;;;17.27;64.62;101382.97;4197414;28;20034;-64
2022/06/10 07:13:00;;;;;;;8.88;3.92;;;;;;;17.41;64.53;101384.72;4202150;28;20128;-64
2022/06/10 07:15:04;;;;;;;8.90;4.72;;;;;;;17.45;64.62;101384.72;4204625;28;20036;-64
2022/06/10 07:17:07;;;;;;;8.50;4.47;;;;;;;17.48;64.64;101385.59;4207280;28;20467;-67
2022/06/10 07:19:11;;;;;;;9.30;4.03;;;;;;;17.52;63.96;101383.00;4209748;28;20043;-66
2022/06/10 07:21:14;;;;;;;8.52;4.45;;;;;;;17.57;64.01;101380.34;4201875;28;20403;-66
2022/06/10 07:23:19;;;;;;;8.15;4.03;;;;;;;17.65;63.92;101380.34;4208706;28;20047;-66
2022/06/10 07:25:23;;;;;;;9.88;4.47;;;;;;;17.82;63.63;101388.25;4211147;28;20050;-66
2022/06/10 07:27:27;;;;;;;6.57;4.20;;;;;;;17.85;63.25;101383.84;4186297;28;20044;-66
2022/06/10 07:29:39;;;;;;;7.38;3.85;;;;;;;17.94;63.23;101380.34;4207336;28;20039;-66
2022/06/10 07:31:42;;;;;;;9.55;4.38;;;;;;;17.98;63.10;101376.84;4189291;28;20039;-66
2022/06/10 07:33:45;;;;;;;12.38;5.18;;;;;;;18.12;62.85;101375.06;4207630;28;20032;-67
2022/06/10 07:35:49;;;;;;;9.57;5.30;;;;;;;18.22;61.97;101375.03;4210466;28;20059;-66
2022/06/10 07:37:53;;;;;;;7.40;4.07;;;;;;;18.25;60.93;101377.63;4203520;28;20119;-67
2022/06/10 07:39:57;;;;;;;10.82;4.60;;;;;;;18.22;60.97;101382.91;4211055;28;20317;-67
2022/06/10 07:42:00;;;;;;;11.95;4.47;;;;;;;18.33;60.87;101383.78;4207428;28;20039;-67
2022/06/10 07:44:03;;;;;;;11.23;4.38;;;;;;;18.40;60.49;101379.34;4206355;28;20037;-67
2022/06/10 07:46:09;;;;;;;8.10;3.70;;;;;;;18.34;60.97;101385.53;4203500;28;20486;-67
2022/06/10 07:48:13;;;;;;;7.85;3.88;;;;;;;18.42;60.46;101383.72;4206401;28;20078;-67
2022/06/10 07:50:17;;;;;;;11.32;5.30;;;;;;;18.52;59.81;101381.94;4208370;28;20561;-67
2022/06/10 07:52:20;;;;;;;8.60;3.85;;;;;;;18.67;59.98;101381.91;4202115;28;20052;-67
2022/06/10 07:54:23;;;;;;;7.68;3.75;;;;;;;18.75;59.94;101386.22;4201784;28;20119;-67
2022/06/10 07:56:26;;;;;;;11.40;3.15;;;;;;;18.74;60.16;101389.75;4196632;28;20043;-67
2022/06/10 07:58:29;;;;;;;9.15;4.07;;;;;;;18.79;59.28;101380.06;4203358;28;20040;-67
2022/06/10 08:00:34;;;;;;;6.07;2.88;;;;;;;18.78;60.20;101387.09;4204706;28;20048;-67
2022/06/10 08:02:38;;;;;;;10.52;3.53;;;;;;;18.79;60.49;101380.06;4207134;28;20043;-67
2022/06/10 08:04:41;;;;;;;9.40;3.45;;;;;;;18.90;59.79;101388.81;4205576;28;20082;-67
2022/06/10 08:06:47;;;;;;;11.25;3.40;;;;;;;18.92;58.97;101383.53;4205135;28;20036;-67
2022/06/10 08:08:51;;;;;;;7.70;3.45;;;;;;;19.02;59.80;101377.34;4206518;28;20068;-67
2022/06/10 08:10:54;;;;;;;6.60;3.00;;;;;;;19.09;60.18;101373.78;4209610;28;20097;-67
2022/06/10 08:12:57;;;;;;;9.07;3.55;;;;;;;19.06;59.73;101371.16;4183600;28;20542;-67
2022/06/10 08:15:00;;;;;;;10.52;3.40;;;;;;;19.00;58.96;101377.34;4208529;28;20135;-67
2022/06/10 08:17:06;;;;;;;11.20;4.53;;;;;;;19.16;59.46;101372.00;4213717;28;20052;-67
2022/06/10 08:19:11;;;;;;;8.38;4.18;;;;;;;19.37;57.41;101365.69;4211468;28;20227;-66
2022/06/10 08:23:37;;;;;;;8.23;3.58;;;;;;;19.33;59.34;101375.38;4209683;28;20067;-66
2022/06/10 08:25:41;;;;;;;10.38;5.13;;;;;;;19.52;57.73;101369.94;4207885;28;20039;-67
2022/06/10 08:27:44;;;;;;;7.40;4.20;;;;;;;19.54;56.90;101366.41;4210065;28;20070;-67
2022/06/10 08:29:47;;;;;;;11.80;4.97;;;;;;;19.60;56.99;101362.00;4205276;28;20028;-67
2022/06/10 08:31:50;;;;;;;5.95;3.50;;;;;;;19.63;57.56;101369.88;4205476;28;20059;-67
2022/06/10 08:33:53;;;;;;;7.80;3.30;;;;;;;19.58;58.47;101362.00;4210360;28;20074;-67
2022/06/10 08:35:59;;;;;;;7.55;3.70;;;;;;;19.49;58.20;101373.50;4204640;28;20060;-67
2022/06/10 08:38:05;;;;;;;7.32;3.28;;;;;;;19.43;58.29;101375.31;4213594;28;20040;-67
2022/06/10 08:40:18;;;;;;;6.40;2.92;;;;;;;19.49;58.52;101362.97;4205698;28;20041;-65
2022/06/10 08:42:33;;;;;;;12.27;3.58;;;;;;;19.60;58.09;101359.34;4202991;28;20379;-69
2022/06/10 08:44:41;;;;;;;9.75;4.55;;;;;;;19.61;57.89;101364.63;4204982;28;20481;-73
2022/06/10 08:47:14;;;;;;;9.30;3.83;;;;;;;19.70;57.40;101363.66;4208159;28;20036;-68
2022/06/10 08:49:54;;;;;;;11.05;3.45;;;;;;;19.72;56.89;101367.13;4200600;28;20056;-66
2022/06/10 08:52:09;;;;;;;7.20;3.35;;;;;;;19.77;56.58;101364.47;4195786;28;20572;-67
2022/06/10 08:54:15;;;;;;;7.95;3.20;;;;;;;19.90;57.39;101370.53;4203496;28;20094;-67
2022/06/10 08:56:24;;;;;;;9.15;3.83;;;;;;;20.03;56.72;101366.88;4202661;28;20041;-69
2022/06/10 08:58:33;;;;;;;10.20;3.85;;;;;;;20.04;56.17;101371.25;4212030;28;20040;-64
2022/06/10 09:00:40;;;;;;;10.05;4.03;;;;;;;20.12;55.66;101365.91;4201340;28;20119;-65
2022/06/10 09:02:50;;;;;;;11.30;3.63;;;;;;;20.23;55.93;101358.75;4204003;28;20393;-64
2022/06/10 09:04:59;;;;;;;8.75;3.50;;;;;;;20.36;55.78;101356.84;4202791;28;20049;-65
2022/06/10 09:07:11;;;;;;;8.43;3.25;;;;;;;20.36;54.89;101357.69;4204544;28;20063;-66
2022/06/10 09:09:16;;;;;;;10.93;3.30;;;;;;;20.39;55.02;101360.28;4208773;28;20452;-65
2022/06/10 09:11:25;;;;;;;10.93;2.97;;;;;;;20.38;54.87;101357.69;4202609;28;20560;-65
2022/06/10 09:13:35;;;;;;;4.47;1.92;;;;;;;20.45;54.82;101355.84;4208510;28;20036;-65
2022/06/10 09:15:47;;;;;;;6.78;2.47;;;;;;;20.57;55.09;101363.59;4203734;28;20036;-66
2022/06/10 09:17:55;;;;;;;8.13;2.90;;;;;;;20.84;51.80;101357.13;4207028;28;20051;-65
2022/06/10 09:20:11;;;;;;;6.90;2.70;;;;;;;20.75;52.89;101357.25;4212638;28;20067;-64
2022/06/10 09:22:24;;;;;;;8.85;2.60;;;;;;;20.67;52.06;101357.34;4188519;28;20068;-64
2022/06/10 09:24:31;;;;;;;6.25;2.25;;;;;;;20.71;52.10;101350.25;4190778;28;20048;-65
2022/06/10 09:26:39;;;;;;;7.35;2.50;;;;;;;20.83;52.59;101365.94;4205357;28;20135;-65
2022/06/10 09:28:43;;;;;;;7.18;2.75;;;;;;;21.05;50.99;101363.84;4207283;28;20032;-65
2022/06/10 09:30:52;;;;;;;6.70;2.17;;;;;;;21.06;52.82;101362.09;4202148;28;20441;-65
2022/06/10 09:33:00;;;;;;;4.38;1.92;;;;;;;21.09;52.05;101354.13;4201783;28;20044;-69
2022/06/10 09:35:12;;;;;;;8.00;2.50;;;;;;;21.18;49.24;101356.59;4204406;28;20043;-67
2022/06/10 09:37:27;;;;;;;8.18;2.35;;;;;;;21.18;50.44;101358.38;4208256;28;20050;-66
2022/06/10 09:42:10;;;;;;;6.13;2.28;;;;;;;21.09;49.36;101362.03;4192068;28;20049;-64
2022/06/10 09:44:21;;;;;;;5.80;2.20;;;;;;;21.30;49.21;101362.59;4199318;28;20048;-65
2022/06/10 09:46:49;;;;;;;4.60;2.17;;;;;;;21.27;48.99;101361.78;4206830;28;20135;-65
2022/06/10 09:49:12;;;;;;;6.63;2.28;;;;;;;21.58;48.34;101363.03;4201785;28;20043;-65
2022/06/10 09:51:25;;;;;;;6.18;1.88;;;;;;;21.51;49.18;101354.34;4200717;28;20053;-65
2022/06/10 09:53:45;;;;;;;6.43;2.35;;;;;;;21.56;48.44;101357.78;4203859;28;20043;-64
2022/06/10 09:56:02;;;;;;;8.80;2.65;;;;;;;21.77;47.81;101361.84;4203788;28;20131;-64
2022/06/10 09:58:31;;;;;;;7.55;2.65;;;;;;;21.81;48.25;101351.19;4222938;28;20130;-64
2022/06/10 10:00:42;;;;;;;6.78;2.20;;;;;;;21.90;47.80;101359.84;4199449;28;20048;-66
2022/06/10 10:02:58;;;;;;;6.68;1.83;;;;;;;21.96;46.98;101353.53;4208112;28;20040;-65
2022/06/10 10:05:32;;;;;;;4.85;1.90;;;;;;;22.06;46.96;101357.75;4204466;28;20083;-66
2022/06/10 10:07:45;;;;;;;9.30;2.67;;;;;;;22.18;46.53;101350.47;4185711;28;20392;-65